Airfield :
LOGIN :

Register | Disclaimer

   EN    FR    IT 

 










Legend :    VFR   Marginal VFR   IFR   Intensive IFR   Very Intensive IFR
Visi :
Ceiling :
>= 8 km
>= 3000ft
5 to 8 km
1000 to 3000 ft
1500m to 5 km
500 to 1000 ft
800 to 1500m
200 to 500 ft
< 800m
< 200 ft
Symbols :   Thunderstorms  Fog  Heavy snow  Heavy precipitations  Wind > 20 kt
SIGMETs :     Misc.  Thunderstorms  Icing  Turbulence  Mountain Waves  Volcanic Ashes






- Airport Elevation : 1247 ft
- IATA code : PRG


LKPR - Praha Ruzyne

CURRENT METAR :
  • 290800Z 15006KT 4800 -DZ BR BKN007 BKN018 02/02 Q1018 NOSIG

EXPIRED METARs :
  • 290730Z 14005KT 4500 -DZ BR SCT006 BKN013 OVC018 02/02 Q1018 TEMPO BKN006
  • 290700Z 14005KT 4400 -DZ BR SCT008 BKN014 02/02 Q1017 TEMPO BKN008
  • 290630Z 11004KT 5000 -DZ BR FEW010 BKN017 OVC026 02/02 Q1017 BECMG 4000 -DZ BR BKN013
  • 290600Z 12003KT 6000 -DZ SCT013 BKN018 OVC027 02/02 Q1017 BECMG BKN013
  • 290530Z 12003KT 7000 -DZ SCT012 BKN027 02/02 Q1017 TEMPO 4500 -DZ BR BKN012

TAF TAF LKPR
Valid from the 29 at 06:00 until the 30 at 12:00 UTC


290500Z 2906/3012 12004KT 8000 SCT023
TEMPO 2906/3000 BKN017
PROB30
TEMPO 2906/2910 4500 -RASN BR OVC012
TEMPO 3003/3009 4000 BR BKN014



MET'MAP, your aeronautical weather chart ! - Copyright ORBIFLY December 2007 - Disclaimer

ORBIFLY MET'MAP TEAM :

Programming & Development : Alexandra Zaïnal
Original concept : Baudouin d'Aumeries
Technical & hardware support : Manuel Goepfert
Assistance : Marc-Olivier Méhu




SOURCES & CREDITS :

   NOAA